Time;durP1;ratioP1;P1;durP2;ratioP2;P2;SDS_P1;SDS_P2;PMS_P1;PMS_P2;Temp;Humidity;BMP_temperature;BMP_pressure;BME280_temperature;BME280_humidity;BME280_pressure;Samples;Min_cycle;Max_cycle;Signal;HPM_P1;HPM_P2
2022/01/18 00:00:08;;;;;;;41.70;6.80;;;7.30;99.90;;;;;;5031688;28;20120;-81
2022/01/18 00:02:33;;;;;;;44.50;7.07;;;7.30;99.90;;;;;;5028235;28;20496;-81
2022/01/18 00:05:00;;;;;;;41.65;6.45;;;7.20;99.90;;;;;;5019777;28;20124;-81
2022/01/18 00:07:25;;;;;;;41.38;6.57;;;7.20;99.90;;;;;;5036088;28;20073;-81
2022/01/18 00:09:51;;;;;;;42.55;6.57;;;7.20;99.90;;;;;;5019440;28;20094;-81
2022/01/18 00:17:53;;;;;;;49.78;6.90;;;7.00;99.90;;;;;;5021872;28;20050;-81
2022/01/18 00:20:30;;;;;;;41.92;6.65;;;6.90;99.90;;;;;;5035765;28;20041;-81
2022/01/18 00:22:56;;;;;;;47.42;6.70;;;6.90;99.90;;;;;;5035940;28;20041;-81
2022/01/18 00:25:22;;;;;;;54.70;7.25;;;6.90;99.90;;;;;;5019042;28;20435;-81
2022/01/18 00:27:47;;;;;;;49.90;7.30;;;6.90;99.90;;;;;;5019304;28;20071;-81
2022/01/18 00:30:50;;;;;;;49.67;7.07;;;6.90;99.90;;;;;;5019377;28;20040;-81
2022/01/18 00:35:36;;;;;;;56.20;7.55;;;7.00;99.90;;;;;;5052396;28;20048;-81
2022/01/18 00:38:14;;;;;;;48.90;7.00;;;7.00;99.90;;;;;;5019444;28;20052;-81
2022/01/18 00:40:39;;;;;;;48.72;7.70;;;7.00;99.90;;;;;;5018216;28;20041;-81
2022/01/18 00:43:05;;;;;;;55.72;7.93;;;7.00;99.90;;;;;;5003142;28;20095;-81
2022/01/18 00:45:31;;;;;;;49.70;7.13;;;7.10;99.90;;;;;;5019378;28;20048;-81
2022/01/18 00:47:57;;;;;;;50.83;7.40;;;7.10;99.90;;;;;;5035604;28;20044;-81
2022/01/18 00:50:26;;;;;;;52.80;7.35;;;7.10;99.90;;;;;;5019199;28;20045;-81
2022/01/18 00:52:53;;;;;;;50.22;7.22;;;7.20;99.90;;;;;;5019802;28;20067;-81
2022/01/18 00:55:19;;;;;;;50.95;7.18;;;7.20;99.90;;;;;;5005679;28;20072;-81
2022/01/18 00:57:45;;;;;;;45.72;6.80;;;7.20;99.90;;;;;;4982978;28;20111;-81
2022/01/18 01:00:12;;;;;;;45.83;7.15;;;7.20;99.90;;;;;;4983157;28;20042;-81
2022/01/18 01:02:37;;;;;;;47.75;6.70;;;7.20;99.90;;;;;;4999040;28;20041;-81
2022/01/18 01:05:04;;;;;;;48.53;6.90;;;7.30;99.90;;;;;;4999068;28;20493;-81
2022/01/18 01:07:29;;;;;;;47.28;7.10;;;7.20;99.90;;;;;;5015267;28;20030;-81
2022/01/18 01:09:55;;;;;;;41.47;6.55;;;7.20;99.90;;;;;;4982877;28;20041;-81
2022/01/18 01:12:25;;;;;;;49.15;6.93;;;7.20;99.90;;;;;;4981899;28;20050;-81
2022/01/18 01:14:53;;;;;;;50.33;7.28;;;7.20;99.90;;;;;;5015424;28;20045;-81
2022/01/18 01:36:28;;;;;;;43.50;6.68;;;7.10;99.90;;;;;;5018997;28;20408;-81
2022/01/18 01:42:07;;;;;;;37.90;6.88;;;7.10;99.90;;;;;;5054434;28;20087;-81
2022/01/18 01:44:44;;;;;;;38.40;6.60;;;7.10;99.90;;;;;;5039199;28;20126;-81
2022/01/18 01:47:12;;;;;;;42.80;6.55;;;7.10;99.90;;;;;;5022251;28;20046;-82
2022/01/18 01:49:39;;;;;;;44.25;6.82;;;7.10;99.90;;;;;;5023000;28;20463;-82
2022/01/18 01:52:10;;;;;;;45.28;6.35;;;7.10;99.90;;;;;;5038675;28;20110;-82
2022/01/18 01:54:37;;;;;;;48.78;6.68;;;7.10;99.90;;;;;;5033030;28;20145;-81
2022/01/18 01:57:03;;;;;;;41.05;6.75;;;7.10;99.90;;;;;;5005283;28;20492;-81
2022/01/18 01:59:29;;;;;;;43.60;6.80;;;7.10;99.90;;;;;;5022436;28;20044;-81
2022/01/18 02:01:54;;;;;;;46.05;7.20;;;7.10;99.90;;;;;;5018407;28;20041;-81
2022/01/18 02:04:20;;;;;;;40.75;6.60;;;7.00;99.90;;;;;;5002575;28;20064;-81
2022/01/18 02:06:46;;;;;;;43.30;7.22;;;7.10;99.90;;;;;;5002171;28;20481;-81
2022/01/18 02:09:12;;;;;;;41.22;6.95;;;7.00;99.90;;;;;;5018733;28;20041;-81
2022/01/18 02:11:38;;;;;;;37.88;7.03;;;7.00;99.90;;;;;;5017592;28;20049;-82
2022/01/18 02:14:07;;;;;;;44.08;6.85;;;7.00;99.90;;;;;;5002831;28;20049;-82
2022/01/18 02:22:04;;;;;;;46.13;7.13;;;6.90;99.90;;;;;;5004574;28;20060;-82
2022/01/18 02:24:30;;;;;;;41.75;7.43;;;6.90;99.90;;;;;;5002078;28;20037;-82
2022/01/18 02:26:55;;;;;;;40.38;7.25;;;6.90;99.90;;;;;;5017636;28;20049;-82
2022/01/18 02:29:21;;;;;;;42.35;7.63;;;6.90;99.90;;;;;;5002178;28;20038;-82
2022/01/18 02:31:47;;;;;;;43.13;7.47;;;6.90;99.90;;;;;;5001920;28;20131;-82
2022/01/18 02:34:17;;;;;;;42.70;7.65;;;6.80;99.90;;;;;;5001959;28;20120;-82
2022/01/18 02:36:43;;;;;;;39.58;7.80;;;6.90;99.90;;;;;;5018145;28;20037;-82
2022/01/18 02:39:10;;;;;;;44.80;7.80;;;6.80;99.90;;;;;;5001372;28;20033;-82
2022/01/18 02:41:37;;;;;;;44.45;7.93;;;6.80;99.90;;;;;;5000595;28;20408;-82
2022/01/18 02:44:06;;;;;;;45.33;8.10;;;6.80;99.90;;;;;;5018312;28;20477;-82
2022/01/18 02:46:33;;;;;;;46.47;8.70;;;6.80;99.90;;;;;;5001151;28;20041;-82
2022/01/18 02:49:00;;;;;;;39.78;7.72;;;6.80;99.90;;;;;;5017794;28;20072;-82
2022/01/18 02:51:26;;;;;;;45.97;7.70;;;6.80;99.90;;;;;;5009818;28;20076;-82
2022/01/18 02:54:13;;;;;;;50.45;8.90;;;6.70;99.90;;;;;;5018422;28;20056;-82
2022/01/18 02:56:47;;;;;;;52.80;9.57;;;6.70;99.90;;;;;;5000476;28;20556;-82
2022/01/18 02:59:21;;;;;;;58.45;9.75;;;6.70;99.90;;;;;;5017509;28;20045;-82
2022/01/18 03:04:39;;;;;;;53.53;10.05;;;6.60;99.90;;;;;;5017660;28;20076;-82
2022/01/18 03:07:05;;;;;;;56.17;10.45;;;6.70;99.90;;;;;;5000802;28;20041;-82
2022/01/18 03:09:31;;;;;;;48.78;10.55;;;6.70;99.90;;;;;;5000827;28;20041;-82
2022/01/18 03:11:56;;;;;;;51.35;10.15;;;6.60;99.90;;;;;;5016187;28;20052;-82
2022/01/18 03:14:22;;;;;;;54.28;10.38;;;6.60;99.90;;;;;;4985099;28;20065;-82
2022/01/18 03:16:48;;;;;;;48.90;10.05;;;6.70;99.90;;;;;;5000746;28;20041;-82
2022/01/18 03:19:14;;;;;;;54.22;9.70;;;6.60;99.90;;;;;;5000885;28;20049;-82
2022/01/18 03:21:40;;;;;;;54.15;9.82;;;6.60;99.90;;;;;;5000611;28;20045;-82
2022/01/18 03:24:14;;;;;;;57.03;9.98;;;6.60;99.90;;;;;;5017155;28;20079;-82
2022/01/18 03:29:26;;;;;;;55.65;10.45;;;6.60;99.90;;;;;;5003186;28;20084;-82
2022/01/18 03:31:51;;;;;;;44.63;9.30;;;6.60;99.90;;;;;;5020156;28;20129;-82
2022/01/18 03:34:17;;;;;;;47.97;9.85;;;6.60;99.90;;;;;;5037001;28;20128;-82
2022/01/18 03:36:43;;;;;;;52.55;9.98;;;6.60;99.90;;;;;;5020088;28;20056;-82
2022/01/18 03:39:09;;;;;;;53.50;10.45;;;6.60;99.90;;;;;;5036817;28;20040;-82
2022/01/18 03:41:34;;;;;;;49.67;9.55;;;6.60;99.90;;;;;;5002675;28;20127;-82
2022/01/18 03:44:00;;;;;;;48.22;9.32;;;6.60;99.90;;;;;;5019776;28;20090;-82
2022/01/18 03:46:26;;;;;;;49.30;9.25;;;6.60;99.90;;;;;;5001901;28;20025;-82
2022/01/18 03:48:52;;;;;;;48.83;9.77;;;6.60;99.90;;;;;;5016391;28;20034;-82
2022/01/18 03:51:18;;;;;;;42.08;8.85;;;6.60;99.90;;;;;;4999207;28;20037;-82
2022/01/18 03:53:44;;;;;;;39.78;8.45;;;6.60;99.90;;;;;;5016611;28;20040;-82
2022/01/18 03:56:10;;;;;;;38.25;8.77;;;6.60;99.90;;;;;;5019538;28;20072;-81
2022/01/18 03:58:36;;;;;;;36.72;8.07;;;6.60;99.90;;;;;;5046343;28;20079;-81
2022/01/18 04:01:04;;;;;;;37.85;8.07;;;6.50;99.90;;;;;;5018903;28;20041;-81
2022/01/18 04:03:29;;;;;;;40.58;7.95;;;6.50;99.90;;;;;;5022920;28;20041;-81
2022/01/18 04:05:56;;;;;;;26.88;7.03;;;6.60;99.90;;;;;;5020896;28;20036;-81
2022/01/18 04:08:23;;;;;;;30.67;6.95;;;6.50;99.90;;;;;;5032201;28;20037;-81
2022/01/18 04:10:49;;;;;;;39.85;7.45;;;6.50;99.90;;;;;;5014742;28;20092;-81
2022/01/18 04:13:15;;;;;;;36.45;7.82;;;6.50;99.90;;;;;;5018203;28;20095;-81
2022/01/18 04:15:41;;;;;;;41.38;8.45;;;6.50;99.90;;;;;;5001359;28;20033;-81
2022/01/18 04:18:44;;;;;;;40.20;7.80;;;6.50;99.90;;;;;;5015991;28;20041;-81
2022/01/18 04:26:56;;;;;;;37.00;7.60;;;6.50;99.90;;;;;;5034696;28;20040;-81
2022/01/18 04:29:23;;;;;;;38.40;7.03;;;6.40;99.90;;;;;;5035463;28;20051;-81
2022/01/18 04:31:49;;;;;;;30.30;6.40;;;6.40;99.90;;;;;;5018804;28;20051;-81
2022/01/18 04:34:15;;;;;;;34.90;6.75;;;6.40;99.90;;;;;;5018930;28;20416;-81
2022/01/18 04:36:40;;;;;;;33.72;6.53;;;6.40;99.90;;;;;;5035112;28;20045;-81
2022/01/18 04:39:06;;;;;;;29.42;5.63;;;6.40;99.90;;;;;;5018897;28;20124;-81
2022/01/18 04:41:34;;;;;;;35.15;6.18;;;6.40;99.90;;;;;;5034374;28;20036;-81
2022/01/18 04:49:11;;;;;;;32.53;5.35;;;6.40;99.90;;;;;;5031908;28;20045;-81
2022/01/18 04:51:38;;;;;;;31.92;5.30;;;6.50;99.90;;;;;;5018684;28;20049;-81
2022/01/18 04:54:07;;;;;;;27.40;5.47;;;6.50;99.90;;;;;;5000794;28;20065;-81
2022/01/18 04:59:00;;;;;;;24.25;5.13;;;6.40;99.90;;;;;;5011346;28;20456;-81
2022/01/18 05:01:25;;;;;;;28.33;5.45;;;6.50;99.90;;;;;;4999029;28;20041;-81
2022/01/18 05:03:51;;;;;;;28.98;5.20;;;6.40;99.90;;;;;;4982595;28;20036;-81
2022/01/18 05:06:19;;;;;;;27.13;4.95;;;6.40;99.90;;;;;;4982779;28;20120;-81
2022/01/18 05:08:45;;;;;;;28.40;4.93;;;6.50;99.90;;;;;;4983065;28;20109;-81
2022/01/18 05:11:14;;;;;;;26.83;5.05;;;6.40;99.90;;;;;;5014443;28;20041;-81
2022/01/18 05:19:25;;;;;;;24.25;5.47;;;6.50;99.90;;;;;;5000848;28;20100;-81
2022/01/18 05:24:29;;;;;;;28.15;6.30;;;6.40;99.90;;;;;;5015258;28;20049;-81
2022/01/18 05:26:56;;;;;;;27.50;6.60;;;6.40;99.90;;;;;;5014489;28;20463;-81
2022/01/18 05:29:23;;;;;;;21.75;6.18;;;6.40;99.90;;;;;;5015186;28;20037;-81
2022/01/18 05:31:49;;;;;;;28.30;7.10;;;6.30;99.90;;;;;;5033973;28;20052;-81
2022/01/18 05:34:15;;;;;;;28.65;7.20;;;6.30;99.90;;;;;;5018376;28;20041;-81
2022/01/18 05:36:41;;;;;;;24.42;7.22;;;6.30;99.90;;;;;;5018123;28;20119;-81
2022/01/18 05:39:10;;;;;;;27.80;7.20;;;6.30;99.90;;;;;;5018492;28;20488;-81
2022/01/18 05:41:37;;;;;;;33.00;8.13;;;6.30;99.90;;;;;;5033646;28;20124;-81
2022/01/18 05:44:03;;;;;;;23.77;6.68;;;6.30;99.90;;;;;;5018334;28;20040;-81
2022/01/18 05:46:29;;;;;;;28.17;7.07;;;6.30;99.90;;;;;;5031129;28;20137;-81
2022/01/18 05:48:55;;;;;;;31.58;7.18;;;6.20;99.90;;;;;;5031356;28;20073;-81
2022/01/18 05:51:21;;;;;;;27.83;6.80;;;6.20;99.90;;;;;;5014808;28;20091;-81
2022/01/18 05:53:46;;;;;;;30.75;6.95;;;6.90;99.90;;;;;;5014564;28;20046;-81
2022/01/18 05:56:12;;;;;;;23.60;6.75;;;6.20;99.90;;;;;;5032478;28;20048;-81
2022/01/18 05:58:44;;;;;;;25.63;7.25;;;6.20;99.90;;;;;;5001980;28;20033;-81
2022/01/18 06:01:11;;;;;;;23.33;5.85;;;6.30;99.90;;;;;;5017999;28;20045;-82
2022/01/18 06:03:51;;;;;;;23.98;6.75;;;6.50;99.90;;;;;;5018275;28;20045;-82
2022/01/18 06:09:01;;;;;;;24.50;6.85;;;6.20;99.90;;;;;;5020879;28;20128;-82
2022/01/18 06:11:27;;;;;;;25.92;6.78;;;6.20;99.90;;;;;;5033540;28;20083;-82
2022/01/18 06:13:53;;;;;;;29.63;6.88;;;6.30;99.90;;;;;;5018159;28;20041;-82
2022/01/18 06:16:18;;;;;;;24.10;7.00;;;6.20;99.90;;;;;;5021551;28;20045;-81
2022/01/18 06:18:44;;;;;;;26.92;7.75;;;6.20;99.90;;;;;;5005126;28;20055;-81
2022/01/18 06:21:11;;;;;;;25.20;7.10;;;6.20;99.90;;;;;;5021221;28;20420;-81
2022/01/18 06:23:36;;;;;;;28.38;6.65;;;6.20;99.90;;;;;;5037994;28;20040;-81
2022/01/18 06:26:03;;;;;;;25.60;6.47;;;6.20;99.90;;;;;;5036979;28;20037;-81
2022/01/18 06:28:32;;;;;;;25.90;6.65;;;6.20;99.90;;;;;;5038012;28;20327;-81
2022/01/18 06:30:58;;;;;;;30.30;6.63;;;6.20;99.90;;;;;;5037682;28;20099;-82
2022/01/18 06:33:23;;;;;;;24.13;6.43;;;6.20;99.90;;;;;;5021497;28;20053;-82
2022/01/18 06:35:50;;;;;;;28.17;6.38;;;6.10;99.90;;;;;;5037556;28;20124;-82
2022/01/18 06:38:15;;;;;;;18.70;5.57;;;6.20;99.90;;;;;;5021549;28;20400;-82
2022/01/18 06:40:41;;;;;;;25.55;6.20;;;6.20;99.90;;;;;;5020141;28;20136;-82
2022/01/18 06:43:07;;;;;;;27.33;6.13;;;6.40;99.90;;;;;;5020025;28;20132;-82
2022/01/18 06:45:32;;;;;;;26.45;5.97;;;6.20;99.90;;;;;;5018824;28;20046;-82
2022/01/18 06:47:58;;;;;;;21.65;5.18;;;6.20;99.90;;;;;;5033650;28;20041;-81
2022/01/18 06:50:24;;;;;;;21.85;5.10;;;6.10;99.90;;;;;;5020421;28;20132;-81
2022/01/18 06:52:50;;;;;;;23.10;5.35;;;6.20;99.90;;;;;;5003620;28;20121;-81
2022/01/18 06:55:15;;;;;;;24.08;5.50;;;6.20;99.90;;;;;;5000114;28;20045;-81
2022/01/18 06:57:42;;;;;;;25.88;5.30;;;6.20;99.90;;;;;;5036473;28;20044;-81
2022/01/18 07:00:08;;;;;;;25.58;5.35;;;6.20;99.90;;;;;;5017580;28;20034;-81
2022/01/18 07:02:34;;;;;;;19.73;4.50;;;6.20;99.90;;;;;;5019987;28;20087;-81
2022/01/18 07:05:00;;;;;;;21.38;4.30;;;6.80;99.90;;;;;;5020096;28;20489;-81
2022/01/18 07:07:26;;;;;;;25.98;4.50;;;6.20;99.90;;;;;;5035502;28;20392;-81
2022/01/18 07:09:51;;;;;;;19.75;4.75;;;6.20;99.90;;;;;;5004077;28;20065;-81
2022/01/18 07:12:18;;;;;;;22.33;4.25;;;6.20;99.90;;;;;;5005332;28;20040;-81
2022/01/18 07:14:44;;;;;;;22.30;4.43;;;6.20;99.90;;;;;;5015802;28;20156;-81
2022/01/18 07:17:10;;;;;;;21.20;4.40;;;6.20;99.90;;;;;;5036598;28;20127;-81
2022/01/18 07:19:37;;;;;;;19.60;4.15;;;6.20;99.90;;;;;;5035932;28;20037;-81
2022/01/18 07:22:04;;;;;;;18.23;4.03;;;6.10;99.90;;;;;;5019697;28;20044;-81
2022/01/18 07:24:42;;;;;;;19.73;3.90;;;6.10;99.90;;;;;;5019553;28;20064;-81
2022/01/18 07:27:10;;;;;;;20.10;4.18;;;6.10;99.90;;;;;;5015303;28;20062;-81
2022/01/18 07:29:37;;;;;;;20.90;4.30;;;6.10;99.90;;;;;;5036338;28;20439;-81
2022/01/18 07:32:04;;;;;;;21.63;4.07;;;6.10;99.90;;;;;;5034974;28;20120;-81
2022/01/18 07:34:34;;;;;;;18.75;3.38;;;6.10;99.90;;;;;;5016539;28;20041;-81
2022/01/18 07:37:00;;;;;;;23.15;3.50;;;6.10;99.90;;;;;;5017066;28;20048;-81
2022/01/18 07:39:26;;;;;;;22.20;4.38;;;6.10;99.90;;;;;;5034397;28;20033;-81
2022/01/18 07:41:52;;;;;;;17.42;3.50;;;6.10;99.90;;;;;;5007820;28;20038;-81
2022/01/18 07:44:18;;;;;;;17.65;3.40;;;6.10;99.90;;;;;;5018991;28;20044;-81
2022/01/18 07:46:43;;;;;;;22.42;4.03;;;6.10;99.90;;;;;;5032549;28;20065;-81
2022/01/18 07:49:09;;;;;;;21.40;4.05;;;6.10;99.90;;;;;;4984138;28;20060;-81
2022/01/18 07:51:35;;;;;;;18.13;3.90;;;6.10;99.90;;;;;;5000294;28;20041;-81
2022/01/18 07:54:01;;;;;;;21.40;3.83;;;6.10;99.90;;;;;;4983415;28;20057;-81
2022/01/18 07:56:26;;;;;;;23.00;4.03;;;6.10;99.90;;;;;;5018684;28;20048;-81
2022/01/18 07:58:52;;;;;;;18.73;3.72;;;6.10;99.90;;;;;;5019584;28;20063;-81
2022/01/18 08:01:19;;;;;;;17.95;4.30;;;6.10;99.90;;;;;;5018333;28;20382;-81
2022/01/18 08:03:45;;;;;;;18.40;3.90;;;6.10;99.90;;;;;;5032250;28;20067;-81
2022/01/18 08:06:11;;;;;;;17.48;4.15;;;6.10;99.90;;;;;;4983909;28;20390;-81
2022/01/18 08:08:39;;;;;;;19.17;4.38;;;6.10;99.90;;;;;;4983827;28;20037;-81
2022/01/18 08:11:06;;;;;;;18.67;4.55;;;6.10;99.90;;;;;;4998933;28;20041;-81
2022/01/18 08:13:38;;;;;;;21.10;4.80;;;6.10;99.90;;;;;;4999982;28;20045;-81
2022/01/18 08:16:47;;;;;;;20.60;4.40;;;6.10;99.90;;;;;;4995793;28;20091;-82
2022/01/18 08:18:59;;;;;;;20.20;4.72;;;6.20;99.90;;;;;;5030221;28;20082;-82
2022/01/18 08:21:25;;;;;;;20.60;5.03;;;6.20;99.90;;;;;;5034360;28;20508;-82
2022/01/18 08:23:51;;;;;;;23.27;5.13;;;6.20;99.90;;;;;;5035255;28;20067;-82
2022/01/18 08:26:17;;;;;;;18.90;4.90;;;6.20;99.90;;;;;;5034931;28;20401;-82
2022/01/18 08:28:43;;;;;;;18.80;4.93;;;6.20;99.90;;;;;;5002765;28;20037;-82
2022/01/18 08:31:09;;;;;;;17.38;4.60;;;6.20;99.90;;;;;;5018958;28;20047;-82
2022/01/18 08:33:35;;;;;;;21.27;5.15;;;6.30;99.90;;;;;;5002795;28;20128;-82
2022/01/18 08:36:03;;;;;;;15.25;4.65;;;6.30;99.90;;;;;;5002951;28;20527;-82
2022/01/18 08:38:30;;;;;;;21.60;5.03;;;6.30;99.90;;;;;;5035511;28;20467;-82
2022/01/18 08:40:56;;;;;;;21.38;5.03;;;6.30;99.90;;;;;;5018041;28;20048;-82
2022/01/18 08:43:22;;;;;;;21.10;4.80;;;6.30;99.90;;;;;;5035774;28;20037;-82
2022/01/18 08:45:49;;;;;;;17.65;5.05;;;6.30;99.90;;;;;;5024648;28;20120;-82
2022/01/18 08:48:14;;;;;;;16.90;4.82;;;6.40;99.90;;;;;;4999271;28;20124;-82
2022/01/18 08:50:41;;;;;;;22.88;5.30;;;6.80;99.90;;;;;;4983027;28;20076;-82
2022/01/18 08:53:07;;;;;;;19.50;5.15;;;6.40;99.90;;;;;;4982749;28;20052;-82
2022/01/18 08:55:34;;;;;;;23.67;6.15;;;6.40;99.90;;;;;;5011562;28;20053;-82
2022/01/18 08:58:00;;;;;;;18.20;5.45;;;6.40;99.90;;;;;;5034344;28;20392;-82
2022/01/18 09:00:26;;;;;;;20.10;5.90;;;6.40;99.90;;;;;;5031192;28;20044;-82
2022/01/18 09:02:52;;;;;;;25.35;6.40;;;6.40;99.90;;;;;;5018527;28;20044;-82
2022/01/18 09:05:21;;;;;;;23.08;7.07;;;6.50;99.90;;;;;;5051579;28;20132;-82
2022/01/18 09:07:47;;;;;;;23.00;6.97;;;6.40;99.90;;;;;;5035159;28;20045;-82
2022/01/18 09:10:13;;;;;;;23.48;6.78;;;6.50;99.90;;;;;;5001626;28;20044;-82
2022/01/18 09:12:39;;;;;;;26.45;7.63;;;6.50;99.90;;;;;;5017991;28;20051;-82
2022/01/18 09:15:07;;;;;;;27.23;7.50;;;6.50;99.90;;;;;;5011496;28;20056;-81
2022/01/18 09:17:34;;;;;;;26.05;7.32;;;6.50;99.90;;;;;;5016095;28;20045;-81
2022/01/18 09:20:06;;;;;;;25.77;7.22;;;6.50;99.90;;;;;;5018149;28;20041;-82
2022/01/18 09:22:38;;;;;;;24.92;8.35;;;6.50;99.90;;;;;;5017753;28;20033;-82
2022/01/18 09:25:09;;;;;;;;;;;6.50;99.90;;;;;;5018524;28;20106;-82
2022/01/18 09:27:35;;;;;;;22.65;7.80;;;6.50;99.90;;;;;;5033967;28;20292;-82
2022/01/18 09:30:01;;;;;;;23.85;8.63;;;6.50;99.90;;;;;;5034859;28;20037;-81
2022/01/18 09:32:27;;;;;;;25.98;8.30;;;6.80;99.90;;;;;;5001993;28;20029;-82
2022/01/18 09:34:53;;;;;;;27.55;8.40;;;6.60;99.90;;;;;;5018515;28;20083;-82
2022/01/18 09:37:19;;;;;;;26.75;8.10;;;6.60;99.90;;;;;;5018158;28;20048;-82
2022/01/18 09:39:45;;;;;;;25.77;8.85;;;6.60;99.90;;;;;;5002264;28;20041;-82
2022/01/18 09:42:12;;;;;;;22.48;8.38;;;6.60;99.90;;;;;;5008708;28;20038;-82
2022/01/18 09:44:39;;;;;;;22.63;8.40;;;6.70;99.90;;;;;;5002469;28;20037;-82
2022/01/18 09:47:05;;;;;;;21.17;8.05;;;6.70;99.90;;;;;;5034532;28;20037;-82
2022/01/18 09:49:35;;;;;;;24.40;8.50;;;6.70;99.90;;;;;;5032211;28;20030;-82
2022/01/18 09:52:02;;;;;;;23.75;8.45;;;6.80;99.90;;;;;;5012755;28;20045;-82
2022/01/18 09:54:27;;;;;;;23.75;8.43;;;6.70;99.90;;;;;;5020513;28;20045;-82
2022/01/18 09:56:53;;;;;;;23.02;8.60;;;6.80;99.90;;;;;;5021131;28;20137;-82
2022/01/18 09:59:19;;;;;;;23.48;8.32;;;6.80;99.90;;;;;;5022161;28;20048;-82
2022/01/18 10:01:45;;;;;;;28.02;8.80;;;6.80;99.90;;;;;;5005494;28;20044;-81
2022/01/18 10:04:23;;;;;;;22.20;8.82;;;6.90;99.90;;;;;;5038365;28;20400;-81
2022/01/18 10:06:52;;;;;;;23.33;8.60;;;6.90;99.90;;;;;;5021414;28;20041;-81
2022/01/18 10:09:19;;;;;;;27.08;9.00;;;6.90;99.90;;;;;;5021960;28;20033;-81
2022/01/18 10:12:08;;;;;;;22.70;8.82;;;7.00;99.90;;;;;;5019700;28;20040;-81
2022/01/18 10:14:36;;;;;;;24.38;8.98;;;7.00;99.90;;;;;;5017521;28;20094;-81
2022/01/18 10:17:03;;;;;;;22.75;8.38;;;7.10;99.90;;;;;;5038957;28;20064;-81
2022/01/18 10:19:37;;;;;;;18.98;7.68;;;7.10;99.90;;;;;;5038518;28;20037;-81
2022/01/18 10:22:16;;;;;;;18.65;7.55;;;7.10;99.90;;;;;;5037774;28;20052;-81
2022/01/18 10:24:43;;;;;;;22.55;8.45;;;7.20;99.90;;;;;;5037509;28;20037;-81
2022/01/18 10:27:12;;;;;;;19.92;8.30;;;7.10;99.90;;;;;;5025361;28;20037;-81
2022/01/18 10:29:43;;;;;;;25.45;8.70;;;7.20;99.90;;;;;;5018302;28;20038;-81
2022/01/18 10:32:35;;;;;;;22.80;8.73;;;7.30;99.90;;;;;;5018667;28;20038;-81
2022/01/18 10:35:07;;;;;;;19.08;9.02;;;7.30;99.90;;;;;;5025291;28;20485;-81
2022/01/18 10:37:35;;;;;;;22.48;8.80;;;7.30;99.90;;;;;;5005332;28;20539;-81
2022/01/18 10:40:04;;;;;;;20.20;8.85;;;7.40;99.90;;;;;;5021131;28;20079;-81
2022/01/18 10:42:39;;;;;;;24.25;9.45;;;7.40;99.90;;;;;;5020288;28;20127;-81
2022/01/18 10:45:31;;;;;;;25.38;9.38;;;7.40;99.90;;;;;;5037597;28;20063;-81
2022/01/18 10:47:59;;;;;;;21.70;8.50;;;7.50;99.90;;;;;;5037491;28;20041;-81
2022/01/18 10:50:31;;;;;;;20.70;8.90;;;7.50;99.90;;;;;;5037363;28;20114;-81
2022/01/18 10:53:09;;;;;;;21.20;9.15;;;7.50;99.90;;;;;;5037570;28;20075;-81
2022/01/18 10:55:35;;;;;;;20.05;8.80;;;7.50;99.90;;;;;;5012176;28;20556;-81
2022/01/18 10:58:12;;;;;;;21.75;8.63;;;7.50;99.90;;;;;;4985219;28;20163;-81
2022/01/18 11:00:38;;;;;;;23.40;8.27;;;7.50;99.90;;;;;;5017189;28;20045;-81
2022/01/18 11:03:05;;;;;;;22.40;8.70;;;7.50;99.90;;;;;;5017557;28;20085;-81
2022/01/18 11:05:33;;;;;;;18.20;8.20;;;7.60;99.90;;;;;;5017264;28;20068;-81
2022/01/18 11:08:04;;;;;;;18.75;7.97;;;7.60;99.90;;;;;;5001395;28;20489;-82
2022/01/18 11:10:50;;;;;;;19.50;8.20;;;7.60;99.90;;;;;;5015416;28;20045;-82
2022/01/18 11:13:22;;;;;;;22.63;7.97;;;7.70;99.90;;;;;;4985378;28;20528;-82
2022/01/18 11:15:52;;;;;;;21.45;8.32;;;7.70;99.90;;;;;;5005312;28;20052;-82
2022/01/18 11:18:29;;;;;;;24.02;8.57;;;7.70;99.90;;;;;;5020867;28;20040;-82
2022/01/18 11:20:56;;;;;;;18.95;8.38;;;7.80;99.90;;;;;;5021740;28;20416;-82
2022/01/18 11:23:23;;;;;;;18.42;7.80;;;7.80;99.90;;;;;;5004608;28;20419;-82
2022/01/18 11:25:51;;;;;;;17.58;6.38;;;7.80;99.90;;;;;;5016146;28;20037;-82
2022/01/18 11:28:17;;;;;;;15.55;5.88;;;7.90;99.90;;;;;;5000721;28;20033;-82
2022/01/18 11:30:46;;;;;;;18.45;6.38;;;7.90;99.90;;;;;;5024441;28;20116;-81
2022/01/18 11:33:14;;;;;;;19.48;6.15;;;7.90;99.90;;;;;;5016054;28;20041;-81
2022/01/18 11:35:54;;;;;;;18.55;6.30;;;7.90;99.90;;;;;;5019022;28;20559;-81
2022/01/18 11:38:30;;;;;;;17.00;5.45;;;7.90;99.90;;;;;;5035587;28;20041;-81
2022/01/18 11:40:57;;;;;;;12.07;3.70;;;7.90;99.90;;;;;;5010840;28;20041;-81
2022/01/18 11:43:41;;;;;;;14.25;4.88;;;8.00;99.90;;;;;;5017132;28;20080;-81
2022/01/18 11:46:26;;;;;;;14.32;4.40;;;8.00;99.90;;;;;;5033172;28;20029;-81
2022/01/18 11:49:01;;;;;;;12.75;3.88;;;7.90;99.90;;;;;;5016860;28;20485;-81
2022/01/18 11:51:48;;;;;;;13.48;3.80;;;8.00;99.90;;;;;;5034539;28;20132;-81
2022/01/18 11:54:44;;;;;;;12.32;3.78;;;7.90;99.90;;;;;;5035022;28;20064;-81
2022/01/18 11:57:15;;;;;;;15.27;3.72;;;7.90;99.90;;;;;;5018898;28;20048;-81
2022/01/18 11:59:42;;;;;;;12.57;4.28;;;7.90;99.90;;;;;;5030195;28;20051;-81
2022/01/18 12:02:08;;;;;;;14.25;5.00;;;7.90;99.90;;;;;;5018469;28;20068;-81
2022/01/18 12:04:47;;;;;;;15.32;4.75;;;7.90;99.90;;;;;;5035502;28;20040;-81
2022/01/18 12:07:44;;;;;;;12.65;4.30;;;7.80;99.90;;;;;;5036276;28;20087;-81
2022/01/18 12:10:32;;;;;;;14.10;4.57;;;7.90;99.90;;;;;;5028189;28;20053;-81
2022/01/18 12:13:14;;;;;;;14.20;4.53;;;7.80;99.90;;;;;;5035580;28;20041;-81
2022/01/18 12:15:49;;;;;;;14.33;4.53;;;7.80;99.90;;;;;;5003951;28;20041;-81
2022/01/18 12:18:26;;;;;;;15.70;4.93;;;7.70;99.90;;;;;;5018651;28;20284;-81
2022/01/18 12:20:55;;;;;;;15.13;5.30;;;7.70;99.90;;;;;;5018293;28;20071;-81
2022/01/18 12:23:43;;;;;;;15.38;5.40;;;7.60;99.90;;;;;;5051784;28;20043;-81
2022/01/18 12:26:31;;;;;;;16.98;5.70;;;7.70;99.90;;;;;;5033930;28;20120;-81
2022/01/18 12:29:21;;;;;;;16.15;5.07;;;7.70;99.90;;;;;;5031780;28;20041;-81
2022/01/18 12:34:31;;;;;;;13.55;4.90;;;7.70;99.90;;;;;;5051768;28;20526;-81
2022/01/18 12:37:17;;;;;;;17.40;4.82;;;7.70;99.90;;;;;;5034416;28;20037;-81
2022/01/18 12:39:53;;;;;;;14.57;4.88;;;7.70;99.90;;;;;;5019432;28;20516;-81
2022/01/18 12:45:01;;;;;;;13.98;4.85;;;7.70;99.90;;;;;;5035475;28;20045;-81
2022/01/18 12:47:28;;;;;;;15.82;5.00;;;7.70;99.90;;;;;;5018656;28;20048;-81
2022/01/18 12:49:54;;;;;;;13.65;4.38;;;7.60;99.90;;;;;;5018695;28;20120;-81
2022/01/18 12:52:20;;;;;;;14.27;4.50;;;7.60;99.90;;;;;;5017994;28;20053;-81
2022/01/18 12:54:49;;;;;;;13.75;4.28;;;7.60;99.90;;;;;;5033495;28;20049;-81
2022/01/18 12:57:18;;;;;;;11.75;3.72;;;7.60;99.90;;;;;;5018607;28;20132;-81
2022/01/18 13:00:00;;;;;;;12.68;3.97;;;7.60;99.90;;;;;;5018686;28;20087;-81
2022/01/18 13:02:27;;;;;;;11.98;3.78;;;7.50;99.90;;;;;;5002040;28;20128;-81
2022/01/18 13:05:00;;;;;;;15.50;3.80;;;7.50;99.90;;;;;;5018642;28;20052;-81
2022/01/18 13:07:27;;;;;;;13.90;3.67;;;7.50;99.90;;;;;;5018755;28;20047;-81
2022/01/18 13:10:09;;;;;;;13.90;4.30;;;7.40;99.90;;;;;;5018674;28;20048;-81
2022/01/18 13:12:37;;;;;;;12.57;3.88;;;7.50;99.90;;;;;;5018406;28;20455;-81
2022/01/18 13:15:06;;;;;;;17.55;3.85;;;7.40;99.90;;;;;;5018754;28;20045;-81
2022/01/18 13:23:38;;;;;;;12.75;3.22;;;7.40;99.90;;;;;;5034959;28;20167;-81
2022/01/18 13:26:04;;;;;;;9.88;3.47;;;7.40;99.90;;;;;;5021519;28;20144;-81
2022/01/18 13:28:34;;;;;;;13.32;3.95;;;7.30;99.90;;;;;;5039077;28;20072;-81
2022/01/18 13:31:17;;;;;;;11.70;3.95;;;7.30;99.90;;;;;;5022366;28;20045;-81
2022/01/18 13:33:57;;;;;;;13.23;4.30;;;7.30;99.90;;;;;;5006623;28;20037;-81
2022/01/18 13:36:26;;;;;;;11.63;3.95;;;7.30;99.90;;;;;;5022323;28;20076;-81
2022/01/18 13:38:52;;;;;;;14.07;4.30;;;7.30;99.90;;;;;;5022595;28;20439;-81
2022/01/18 13:41:18;;;;;;;13.13;4.25;;;7.20;99.90;;;;;;5037803;28;20045;-81
2022/01/18 13:43:45;;;;;;;13.88;4.43;;;7.30;99.90;;;;;;5038908;28;20094;-81
2022/01/18 13:46:11;;;;;;;13.95;4.00;;;7.20;99.90;;;;;;5022400;28;20058;-81
2022/01/18 13:48:37;;;;;;;10.20;4.05;;;7.20;99.90;;;;;;5005892;28;20041;-81
2022/01/18 13:51:14;;;;;;;13.68;4.10;;;7.20;99.90;;;;;;5005856;28;20040;-81
2022/01/18 13:53:42;;;;;;;11.65;3.70;;;7.10;99.90;;;;;;5006541;28;20049;-81
2022/01/18 13:56:13;;;;;;;12.68;4.18;;;7.10;99.90;;;;;;5036168;28;20464;-81
2022/01/18 13:58:45;;;;;;;10.85;3.88;;;7.20;99.90;;;;;;5022019;28;20098;-81
2022/01/18 14:01:14;;;;;;;13.13;3.95;;;7.20;99.90;;;;;;5038150;28;20048;-81
2022/01/18 14:03:45;;;;;;;12.32;4.15;;;7.20;99.90;;;;;;5038438;28;20083;-81
2022/01/18 14:06:14;;;;;;;14.90;4.40;;;7.20;99.90;;;;;;5038478;28;20037;-81
2022/01/18 14:08:43;;;;;;;13.68;3.80;;;7.20;99.90;;;;;;5005821;28;20032;-81
2022/01/18 14:11:10;;;;;;;12.75;3.85;;;7.30;99.90;;;;;;5037095;28;20045;-81
2022/01/18 14:13:38;;;;;;;14.07;4.10;;;7.30;99.90;;;;;;5038536;28;20417;-81